Time;durP1;ratioP1;P1;durP2;ratioP2;P2;SDS_P1;SDS_P2;PMS_P1;PMS_P2;Temp;Humidity;BMP_temperature;BMP_pressure;BME280_temperature;BME280_humidity;BME280_pressure;Samples;Min_cycle;Max_cycle;Signal;HPM_P1;HPM_P2
2022/06/25 00:01:05;;;;;;;0.30;0.20;;;;;;;16.11;100.00;98341.59;7393220;19;20022;-85
2022/06/25 00:03:31;;;;;;;0.20;0.20;;;;;;;15.95;100.00;98346.34;7393000;19;20347;-87
2022/06/25 00:05:58;;;;;;;3.42;0.68;;;;;;;15.78;100.00;98348.81;7394440;19;20015;-86
2022/06/25 00:08:24;;;;;;;5.38;0.70;;;;;;;15.58;100.00;98350.31;7393838;19;20042;-87
2022/06/25 00:10:51;;;;;;;0.13;0.13;;;;;;;15.46;100.00;98363.09;7393679;19;20007;-86
2022/06/25 00:13:19;;;;;;;0.17;0.17;;;;;;;15.38;100.00;98367.06;7391059;19;20022;-87
2022/06/25 00:15:45;;;;;;;0.30;0.20;;;;;;;15.23;100.00;98367.66;7391599;19;20035;-87
2022/06/25 00:18:12;;;;;;;1.30;0.85;;;;;;;15.10;100.00;98365.63;7394061;19;20492;-86
2022/06/25 00:20:39;;;;;;;0.10;0.10;;;;;;;15.00;100.00;98367.41;7392870;19;20018;-87
2022/06/25 00:23:05;;;;;;;0.17;0.17;;;;;;;14.80;100.00;98362.47;7393052;19;20021;-86
2022/06/25 00:25:31;;;;;;;0.30;0.20;;;;;;;14.79;100.00;98363.75;7393840;19;20014;-86
2022/06/25 00:27:57;;;;;;;3.83;0.32;;;;;;;14.61;100.00;98369.47;7390224;19;20010;-86
2022/06/25 00:30:24;;;;;;;0.10;0.10;;;;;;;14.58;100.00;98373.34;7393320;19;20014;-86
2022/06/25 00:32:50;;;;;;;0.60;0.40;;;;;;;14.54;100.00;98370.88;7390654;19;20508;-86
2022/06/25 00:35:16;;;;;;;4.07;0.40;;;;;;;14.45;100.00;98368.50;7390991;19;20014;-87
2022/06/25 00:37:43;;;;;;;1.35;0.20;;;;;;;14.35;100.00;98364.63;7390413;19;20026;-86
2022/06/25 00:40:10;;;;;;;0.52;0.20;;;;;;;14.27;100.00;98369.34;7397801;19;20030;-86
2022/06/25 00:42:36;;;;;;;0.55;0.20;;;;;;;14.23;100.00;98374.47;7392893;19;20043;-86
2022/06/25 00:45:03;;;;;;;0.10;0.10;;;;;;;14.22;100.00;98378.56;7390505;19;20011;-86
2022/06/25 00:47:29;;;;;;;0.10;0.10;;;;;;;14.18;100.00;98380.94;7390468;19;20018;-86
2022/06/25 00:49:55;;;;;;;0.20;0.20;;;;;;;14.13;100.00;98384.59;7394462;19;20018;-87
2022/06/25 00:52:25;;;;;;;1.65;0.20;;;;;;;14.13;100.00;98384.59;7391502;19;20537;-86
2022/06/25 00:54:54;;;;;;;0.10;0.10;;;;;;;14.03;100.00;98389.09;7390092;19;20015;-87
2022/06/25 00:57:28;;;;;;;1.58;0.30;;;;;;;13.97;100.00;98385.63;7390015;19;20380;-86
2022/06/25 01:00:01;;;;;;;0.10;0.10;;;;;;;13.93;100.00;98390.78;7395541;19;20503;-86
2022/06/25 01:02:27;;;;;;;4.88;0.85;;;;;;;13.89;100.00;98398.72;7391560;19;20481;-86
2022/06/25 01:04:53;;;;;;;0.20;0.20;;;;;;;13.87;100.00;98390.13;7392001;19;20015;-87
2022/06/25 01:07:20;;;;;;;0.15;0.15;;;;;;;13.81;100.00;98395.81;7391505;19;20014;-86
2022/06/25 01:09:51;;;;;;;1.33;0.38;;;;;;;13.90;100.00;98400.25;7393635;19;20006;-87
2022/06/25 01:12:17;;;;;;;0.60;0.10;;;;;;;13.96;100.00;98406.50;7391996;19;20081;-86
2022/06/25 01:14:44;;;;;;;0.65;0.57;;;;;;;14.03;100.00;98411.50;7390393;19;20018;-87
2022/06/25 01:17:11;;;;;;;1.50;0.40;;;;;;;14.11;100.00;98412.34;7389699;19;20034;-87
2022/06/25 01:19:38;;;;;;;0.10;0.10;;;;;;;14.17;100.00;98415.81;7395241;19;20018;-87
2022/06/25 01:22:06;;;;;;;2.20;0.15;;;;;;;14.20;100.00;98414.75;7391564;19;20018;-87
2022/06/25 01:24:33;;;;;;;0.20;0.20;;;;;;;14.25;100.00;98413.91;7390977;19;20017;-87
2022/06/25 01:26:59;;;;;;;1.08;0.45;;;;;;;14.30;100.00;98401.88;7389327;19;20078;-87
2022/06/25 01:29:25;;;;;;;0.57;0.30;;;;;;;14.30;100.00;98416.63;7392246;19;20018;-87
2022/06/25 01:31:52;;;;;;;0.90;0.47;;;;;;;14.30;100.00;98418.66;7391293;19;20029;-87
2022/06/25 01:34:18;;;;;;;0.10;0.10;;;;;;;14.29;100.00;98422.78;7394116;19;20025;-86
2022/06/25 01:36:44;;;;;;;0.28;0.17;;;;;;;14.32;100.00;98416.09;7389020;19;20048;-87
2022/06/25 01:39:11;;;;;;;0.20;0.20;;;;;;;14.29;100.00;98428.38;7395795;19;20034;-87
2022/06/25 01:41:37;;;;;;;1.20;0.38;;;;;;;14.22;100.00;98418.53;7390346;19;20043;-88
2022/06/25 01:44:03;;;;;;;2.08;0.80;;;;;;;14.32;100.00;98422.44;7390958;19;20027;-86
2022/06/25 01:46:30;;;;;;;3.60;0.57;;;;;;;14.31;100.00;98425.78;7391621;19;20010;-86
2022/06/25 01:48:56;;;;;;;0.25;0.20;;;;;;;14.25;100.00;98427.91;7390696;19;20041;-87
2022/06/25 01:51:22;;;;;;;0.55;0.30;;;;;;;14.17;100.00;98427.78;7389882;19;20034;-88
2022/06/25 01:53:50;;;;;;;1.35;0.90;;;;;;;14.12;100.00;98425.09;7388599;19;20126;-87
2022/06/25 01:56:16;;;;;;;2.40;0.57;;;;;;;14.05;100.00;98437.66;7391281;19;20021;-87
2022/06/25 01:58:42;;;;;;;0.30;0.28;;;;;;;13.94;100.00;98431.47;7399780;19;20019;-87
2022/06/25 02:01:10;;;;;;;1.50;0.85;;;;;;;13.89;100.00;98449.09;7397647;19;20027;-88
2022/06/25 02:03:36;;;;;;;1.25;0.45;;;;;;;13.89;100.00;98446.31;7398398;19;20011;-87
2022/06/25 02:06:02;;;;;;;0.20;0.20;;;;;;;13.87;100.00;98454.47;7397074;19;20030;-87
2022/06/25 02:08:35;;;;;;;1.38;0.93;;;;;;;13.85;100.00;98452.22;7397931;19;20033;-87
2022/06/25 02:11:05;;;;;;;0.60;0.45;;;;;;;13.78;100.00;98458.41;7397238;19;20460;-87
2022/06/25 02:13:31;;;;;;;0.20;0.20;;;;;;;13.71;100.00;98447.84;7397704;19;20373;-88
2022/06/25 02:15:58;;;;;;;0.63;0.38;;;;;;;13.61;100.00;98453.06;7396334;19;20038;-87
2022/06/25 02:18:25;;;;;;;0.65;0.55;;;;;;;13.56;100.00;98448.31;7397223;19;20014;-87
2022/06/25 02:20:51;;;;;;;0.20;0.20;;;;;;;13.53;100.00;98454.97;7398338;19;20030;-87
2022/06/25 02:23:19;;;;;;;0.20;0.20;;;;;;;13.51;100.00;98451.94;7398628;19;20023;-86
2022/06/25 02:25:45;;;;;;;0.20;0.20;;;;;;;13.46;100.00;98466.00;7396866;19;20026;-87
2022/06/25 02:28:12;;;;;;;0.32;0.32;;;;;;;13.42;100.00;98459.97;7394558;19;20021;-87
2022/06/25 02:30:38;;;;;;;1.00;0.20;;;;;;;13.35;100.00;98461.31;7398461;19;20019;-87
2022/06/25 02:33:11;;;;;;;0.30;0.13;;;;;;;13.25;100.00;98459.44;7396988;19;20457;-87
2022/06/25 02:35:40;;;;;;;0.45;0.45;;;;;;;13.18;100.00;98466.38;7396606;19;20354;-87
2022/06/25 02:38:08;;;;;;;0.20;0.20;;;;;;;13.11;100.00;98466.94;7396623;19;20057;-87
2022/06/25 02:40:35;;;;;;;2.65;0.73;;;;;;;13.02;100.00;98478.47;7396281;19;20137;-86
2022/06/25 02:43:02;;;;;;;1.65;0.63;;;;;;;12.92;100.00;98469.69;7396239;19;20484;-87
2022/06/25 02:45:35;;;;;;;0.10;0.10;;;;;;;12.84;100.00;98468.00;7396157;19;20029;-87
2022/06/25 02:48:02;;;;;;;2.30;0.50;;;;;;;12.82;100.00;98471.31;7394769;19;20028;-87
2022/06/25 02:50:28;;;;;;;0.63;0.63;;;;;;;12.79;100.00;98477.97;7395972;19;20006;-87
2022/06/25 02:52:54;;;;;;;2.20;0.40;;;;;;;12.78;100.00;98481.25;7395268;19;20404;-87
2022/06/25 03:00:50;;;;;;;1.00;0.22;;;;;;;12.60;100.00;98479.19;7397425;19;20019;-87
2022/06/25 03:03:17;;;;;;;0.30;0.30;;;;;;;12.55;100.00;98488.34;7395336;19;20040;-87
2022/06/25 03:05:43;;;;;;;0.28;0.28;;;;;;;12.47;100.00;98485.41;7395336;19;20014;-87
2022/06/25 03:08:10;;;;;;;0.20;0.20;;;;;;;12.51;100.00;98485.84;7391992;19;20017;-87
2022/06/25 03:10:36;;;;;;;0.63;0.57;;;;;;;12.53;100.00;98488.13;7395643;19;20475;-87
2022/06/25 03:13:03;;;;;;;0.85;0.50;;;;;;;12.52;100.00;98498.53;7395039;19;20021;-86
2022/06/25 03:15:30;;;;;;;5.60;0.50;;;;;;;12.45;100.00;98493.50;7394965;19;20011;-86
2022/06/25 03:17:57;;;;;;;1.40;0.65;;;;;;;12.45;100.00;98503.94;7392299;19;20015;-86
2022/06/25 03:20:50;;;;;;;0.25;0.25;;;;;;;12.45;100.00;98503.94;7393317;19;20476;-87
2022/06/25 03:23:16;;;;;;;11.70;1.85;;;;;;;12.43;100.00;98504.44;7394430;19;20014;-86
2022/06/25 03:25:44;;;;;;;3.20;0.55;;;;;;;12.45;100.00;98515.09;7394096;19;20021;-86
2022/06/25 03:28:10;;;;;;;0.10;0.10;;;;;;;12.49;100.00;98510.00;7392648;19;20109;-86
2022/06/25 03:30:38;;;;;;;1.88;0.38;;;;;;;12.49;100.00;98515.59;7394810;19;20018;-86
2022/06/25 03:33:06;;;;;;;0.60;0.43;;;;;;;12.46;100.00;98522.19;7394423;19;20093;-86
2022/06/25 03:35:40;;;;;;;1.40;0.73;;;;;;;12.49;100.00;98521.16;7394294;19;20014;-86
2022/06/25 03:38:17;;;;;;;0.95;0.57;;;;;;;12.42;100.00;98530.88;7394091;19;20333;-86
2022/06/25 03:40:45;;;;;;;4.78;0.35;;;;;;;12.44;100.00;98533.13;7394065;19;20027;-87
2022/06/25 03:43:14;;;;;;;0.43;0.38;;;;;;;12.41;100.00;98532.13;7393413;19;20038;-86
2022/06/25 03:45:42;;;;;;;0.68;0.68;;;;;;;12.32;100.00;98535.28;7393865;19;20022;-86
2022/06/25 03:48:10;;;;;;;0.73;0.40;;;;;;;12.30;100.00;98542.66;7392578;19;20082;-86
2022/06/25 03:50:59;;;;;;;0.22;0.22;;;;;;;12.25;100.00;98532.28;7394644;19;20089;-86
2022/06/25 03:53:25;;;;;;;0.20;0.20;;;;;;;12.26;100.00;98531.00;7393556;19;20481;-86
2022/06/25 03:55:51;;;;;;;2.03;0.32;;;;;;;12.25;100.00;98535.06;7394120;19;20020;-86
2022/06/25 03:58:18;;;;;;;0.30;0.30;;;;;;;12.19;100.00;98538.63;7393305;19;20487;-85
2022/06/25 04:00:44;;;;;;;0.32;0.32;;;;;;;12.16;100.00;98536.91;7394875;19;20333;-86
2022/06/25 04:03:10;;;;;;;0.50;0.30;;;;;;;12.13;100.00;98542.75;7393052;19;20035;-86
2022/06/25 04:06:00;;;;;;;5.65;0.32;;;;;;;12.11;100.00;98546.06;7393209;19;20011;-86
2022/06/25 04:08:37;;;;;;;0.10;0.10;;;;;;;12.07;100.00;98537.22;7394031;19;20021;-86
2022/06/25 04:11:06;;;;;;;0.30;0.30;;;;;;;12.04;100.00;98537.50;7393093;19;20018;-86
2022/06/25 04:13:34;;;;;;;0.35;0.35;;;;;;;11.99;100.00;98541.84;7392449;19;20095;-86
2022/06/25 04:16:00;;;;;;;0.60;0.60;;;;;;;12.09;100.00;98536.69;7391964;19;20074;-85
2022/06/25 04:18:27;;;;;;;0.15;0.15;;;;;;;12.02;100.00;98540.03;7393053;19;20011;-86
2022/06/25 04:20:54;;;;;;;2.55;0.85;;;;;;;12.02;100.00;98543.59;7391191;19;20026;-86
2022/06/25 04:23:20;;;;;;;0.35;0.35;;;;;;;12.02;100.00;98551.94;7392691;19;20108;-85
2022/06/25 04:25:46;;;;;;;0.60;0.32;;;;;;;12.05;100.00;98555.75;7392518;19;20015;-86
2022/06/25 04:31:03;;;;;;;1.00;0.38;;;;;;;12.01;100.00;98550.44;7392368;19;20033;-85
2022/06/25 04:33:30;;;;;;;0.30;0.30;;;;;;;11.99;100.00;98558.59;7393737;19;20273;-85
2022/06/25 04:36:01;;;;;;;0.25;0.25;;;;;;;11.96;100.00;98559.59;7391848;19;20015;-85
2022/06/25 04:38:57;;;;;;;1.95;0.50;;;;;;;11.99;100.00;98574.56;7393901;19;20466;-85
2022/06/25 04:41:23;;;;;;;0.20;0.20;;;;;;;11.99;100.00;98572.53;7391264;19;20014;-86
2022/06/25 04:43:53;;;;;;;0.30;0.30;;;;;;;11.95;100.00;98572.03;7391115;19;20015;-85
2022/06/25 04:46:25;;;;;;;1.55;0.95;;;;;;;12.03;100.00;98578.59;7390752;19;20038;-85
2022/06/25 04:48:53;;;;;;;0.10;0.10;;;;;;;12.09;100.00;98581.34;7391924;19;20018;-85
2022/06/25 04:51:23;;;;;;;3.65;0.88;;;;;;;12.15;100.00;98582.81;7389765;19;20019;-84
2022/06/25 04:53:55;;;;;;;0.95;0.40;;;;;;;12.15;100.00;98580.03;7389523;19;20078;-85
2022/06/25 04:56:29;;;;;;;2.15;0.30;;;;;;;12.15;100.00;98582.81;7389136;19;20038;-85
2022/06/25 04:58:57;;;;;;;0.52;0.32;;;;;;;12.21;100.00;98587.63;7392625;19;20472;-85
2022/06/25 05:01:32;;;;;;;0.35;0.35;;;;;;;12.39;100.00;98595.38;7392928;19;20026;-85
2022/06/25 05:03:59;;;;;;;0.82;0.82;;;;;;;12.42;100.00;98605.47;7391670;19;20011;-86
2022/06/25 05:06:25;;;;;;;2.38;0.75;;;;;;;12.46;100.00;98600.38;7389932;19;20412;-85
2022/06/25 05:08:51;;;;;;;0.40;0.15;;;;;;;12.49;100.00;98599.34;7390107;19;20582;-85
2022/06/25 05:11:17;;;;;;;3.63;1.13;;;;;;;12.54;100.00;98602.09;7389084;19;20388;-85
2022/06/25 05:13:44;;;;;;;0.22;0.15;;;;;;;12.65;100.00;98601.25;7389256;19;20085;-85
2022/06/25 05:16:10;;;;;;;8.15;0.45;;;;;;;12.73;100.00;98602.22;7389119;19;20017;-85
2022/06/25 05:18:36;;;;;;;0.22;0.22;;;;;;;12.83;100.00;98606.19;7393592;19;20014;-85
2022/06/25 05:21:03;;;;;;;0.20;0.20;;;;;;;12.88;100.00;98599.78;7392272;19;20501;-85
2022/06/25 05:23:29;;;;;;;0.20;0.20;;;;;;;12.97;100.00;98610.63;7390823;19;20353;-85
2022/06/25 05:25:56;;;;;;;1.27;0.60;;;;;;;13.10;100.00;98605.22;7389847;19;20011;-85
2022/06/25 05:28:22;;;;;;;0.20;0.20;;;;;;;13.18;100.00;98608.16;7389264;19;20438;-85
2022/06/25 05:30:48;;;;;;;5.18;0.55;;;;;;;13.23;100.00;98610.91;7394068;19;20082;-84
2022/06/25 05:33:14;;;;;;;0.77;0.20;;;;;;;13.33;100.00;98617.66;7400033;19;20476;-85
2022/06/25 05:35:41;;;;;;;0.63;0.47;;;;;;;13.39;100.00;98617.59;7397652;19;20011;-85
2022/06/25 05:38:09;;;;;;;0.30;0.30;;;;;;;13.50;100.00;98623.06;7398065;19;20094;-86
2022/06/25 05:40:36;;;;;;;0.43;0.43;;;;;;;13.73;100.00;98623.59;7398336;19;20049;-85
2022/06/25 05:43:03;;;;;;;9.25;0.32;;;;;;;13.93;100.00;98628.66;7400475;19;20021;-86
2022/06/25 05:45:29;;;;;;;1.33;0.75;;;;;;;13.95;100.00;98628.91;7400046;19;20022;-85
2022/06/25 05:47:56;;;;;;;4.05;0.65;;;;;;;14.04;100.00;98632.09;7397611;19;20015;-87
2022/06/25 05:50:22;;;;;;;0.90;0.38;;;;;;;14.08;100.00;98638.13;7396346;19;20027;-86
2022/06/25 05:52:48;;;;;;;2.85;1.00;;;;;;;14.08;100.00;98640.94;7396078;19;20050;-85
2022/06/25 05:55:14;;;;;;;0.10;0.10;;;;;;;14.01;100.00;98635.94;7396125;19;20085;-85
2022/06/25 05:57:40;;;;;;;0.20;0.20;;;;;;;13.96;100.00;98641.63;7395931;19;20014;-85
2022/06/25 06:00:08;;;;;;;0.28;0.28;;;;;;;13.94;100.00;98644.19;7401166;19;20116;-85
2022/06/25 06:02:40;;;;;;;0.65;0.32;;;;;;;13.94;100.00;98644.19;7398409;19;20018;-86
2022/06/25 06:05:07;;;;;;;0.82;0.30;;;;;;;13.96;100.00;98647.22;7398770;19;20022;-86
2022/06/25 06:07:33;;;;;;;0.75;0.17;;;;;;;14.01;100.00;98649.19;7394509;19;20441;-86
2022/06/25 06:09:59;;;;;;;0.55;0.30;;;;;;;14.03;100.00;98643.81;7399385;19;20015;-85
2022/06/25 06:12:25;;;;;;;1.17;0.30;;;;;;;14.09;100.00;98650.88;7396070;19;20014;-86
2022/06/25 06:14:52;;;;;;;2.70;0.88;;;;;;;14.17;100.00;98656.59;7393950;19;20472;-85
2022/06/25 06:17:18;;;;;;;0.13;0.13;;;;;;;14.30;100.00;98651.13;7394153;19;20115;-85
2022/06/25 06:19:44;;;;;;;1.13;0.60;;;;;;;14.51;100.00;98654.88;7401888;19;20022;-85
2022/06/25 06:22:10;;;;;;;2.83;0.40;;;;;;;14.54;100.00;98645.41;7397997;19;20356;-86
2022/06/25 06:24:36;;;;;;;0.10;0.10;;;;;;;14.51;100.00;98662.56;7397958;19;20499;-85
2022/06/25 06:27:03;;;;;;;1.00;0.68;;;;;;;14.48;100.00;98664.38;7395771;19;20019;-85
2022/06/25 06:29:29;;;;;;;1.05;0.70;;;;;;;14.50;100.00;98656.19;7398804;19;20352;-86
2022/06/25 06:31:55;;;;;;;2.90;0.85;;;;;;;14.61;100.00;98661.63;7395646;19;20023;-86
2022/06/25 06:34:22;;;;;;;2.92;0.70;;;;;;;14.87;100.00;98664.53;7399601;19;20015;-85
2022/06/25 06:36:48;;;;;;;0.63;0.38;;;;;;;15.12;100.00;98653.91;7396644;19;20344;-85
2022/06/25 06:39:14;;;;;;;0.30;0.10;;;;;;;15.19;100.00;98653.28;7401199;19;20461;-85
2022/06/25 06:41:40;;;;;;;1.35;0.47;;;;;;;15.04;100.00;98667.81;7398149;19;20037;-86
2022/06/25 06:44:07;;;;;;;4.85;0.20;;;;;;;14.97;100.00;98671.25;7396244;19;20026;-85
2022/06/25 06:46:33;;;;;;;0.73;0.30;;;;;;;15.20;100.00;98668.84;7395465;19;20081;-86
2022/06/25 06:48:59;;;;;;;5.13;1.48;;;;;;;15.13;100.00;98658.25;7396071;19;20022;-85
2022/06/25 06:51:25;;;;;;;2.70;0.82;;;;;;;15.06;100.00;98662.44;7393925;19;20048;-85
2022/06/25 06:53:51;;;;;;;3.83;0.63;;;;;;;14.98;100.00;98669.97;7395443;19;20467;-85
2022/06/25 06:56:17;;;;;;;2.10;0.30;;;;;;;14.96;100.00;98680.97;7393602;19;20023;-85
2022/06/25 06:58:44;;;;;;;0.68;0.30;;;;;;;15.00;100.00;98675.78;7398881;19;20086;-84
2022/06/25 07:01:10;;;;;;;5.68;0.28;;;;;;;15.04;100.00;98670.63;7395717;19;20014;-85
2022/06/25 07:03:36;;;;;;;0.95;0.40;;;;;;;15.08;100.00;98676.69;7397292;19;20515;-86
2022/06/25 07:06:02;;;;;;;0.40;0.22;;;;;;;15.09;100.00;98672.56;7396345;19;20042;-84
2022/06/25 07:08:28;;;;;;;2.08;0.32;;;;;;;15.14;100.00;98682.94;7393863;19;20014;-85
2022/06/25 07:10:55;;;;;;;0.50;0.50;;;;;;;15.19;100.00;98687.72;7396333;19;20364;-85
2022/06/25 07:13:21;;;;;;;0.55;0.55;;;;;;;15.23;100.00;98681.00;7397435;19;20014;-85
2022/06/25 07:15:47;;;;;;;0.25;0.15;;;;;;;15.29;100.00;98684.50;7395002;19;20010;-84
2022/06/25 07:18:13;;;;;;;0.80;0.40;;;;;;;15.35;100.00;98694.34;7396355;19;20015;-85
2022/06/25 07:20:40;;;;;;;0.85;0.30;;;;;;;15.40;100.00;98679.44;7396827;19;20014;-85
2022/06/25 07:23:06;;;;;;;0.20;0.20;;;;;;;15.45;100.00;98670.19;7395001;19;20093;-85
2022/06/25 07:25:32;;;;;;;0.20;0.20;;;;;;;15.50;100.00;98683.38;7394805;19;20045;-85
2022/06/25 07:27:58;;;;;;;0.75;0.40;;;;;;;15.60;100.00;98692.13;7392711;19;20017;-85
2022/06/25 07:30:24;;;;;;;0.80;0.30;;;;;;;15.58;100.00;98689.09;7394661;19;20477;-85
2022/06/25 07:32:51;;;;;;;1.05;0.32;;;;;;;15.70;100.00;98693.22;7392659;19;20476;-85
2022/06/25 07:35:17;;;;;;;1.33;0.40;;;;;;;15.81;100.00;98695.78;7393432;19;20017;-85
2022/06/25 07:37:43;;;;;;;0.22;0.20;;;;;;;15.88;100.00;98701.53;7392385;19;20029;-85
2022/06/25 07:40:10;;;;;;;0.93;0.40;;;;;;;15.89;100.00;98696.69;7398929;19;20019;-86
2022/06/25 07:42:36;;;;;;;1.85;0.28;;;;;;;15.96;100.00;98698.81;7394646;19;20491;-85
2022/06/25 07:45:03;;;;;;;1.58;0.32;;;;;;;16.02;100.00;98702.31;7394437;19;20437;-85
2022/06/25 07:47:36;;;;;;;1.10;0.22;;;;;;;16.18;100.00;98701.19;7393248;19;20016;-86
2022/06/25 07:52:48;;;;;;;5.63;0.40;;;;;;;16.45;100.00;98713.91;7393454;19;20055;-85
2022/06/25 07:55:14;;;;;;;0.65;0.20;;;;;;;16.62;100.00;98713.56;7391877;19;20022;-86
2022/06/25 07:57:42;;;;;;;0.20;0.20;;;;;;;16.76;100.00;98720.69;7392176;19;20399;-86
2022/06/25 08:00:09;;;;;;;0.10;0.10;;;;;;;16.70;100.00;98711.59;7399339;19;20011;-86
2022/06/25 08:02:38;;;;;;;0.20;0.20;;;;;;;16.80;100.00;98731.59;7394665;19;20019;-85
2022/06/25 08:05:04;;;;;;;0.30;0.30;;;;;;;16.90;100.00;98712.94;7393422;19;20011;-86
2022/06/25 08:07:30;;;;;;;0.20;0.20;;;;;;;17.20;100.00;98719.63;7393429;19;20011;-85
2022/06/25 08:09:56;;;;;;;1.00;0.20;;;;;;;17.33;100.00;98732.88;7396645;19;20049;-86
2022/06/25 08:12:22;;;;;;;4.22;0.55;;;;;;;17.30;100.00;98739.63;7391514;19;20015;-85
2022/06/25 08:14:49;;;;;;;7.38;0.88;;;;;;;17.40;100.00;98743.44;7393057;19;20366;-85
2022/06/25 08:17:15;;;;;;;0.40;0.35;;;;;;;17.11;100.00;98733.41;7393129;19;20014;-86
2022/06/25 08:19:41;;;;;;;0.73;0.20;;;;;;;17.03;100.00;98744.59;7397773;19;20021;-85
2022/06/25 08:22:07;;;;;;;1.48;0.30;;;;;;;17.31;100.00;98741.09;7394524;19;20479;-85
2022/06/25 08:24:33;;;;;;;2.10;0.60;;;;;;;17.42;100.00;98746.47;7394440;19;20010;-86
2022/06/25 08:26:59;;;;;;;1.23;0.35;;;;;;;17.89;100.00;98744.25;7393408;19;20024;-85
2022/06/25 08:29:26;;;;;;;0.10;0.10;;;;;;;18.07;100.00;98737.59;7395135;19;20018;-85
2022/06/25 08:31:53;;;;;;;0.95;0.32;;;;;;;18.28;100.00;98745.25;7393055;19;20085;-87
2022/06/25 08:34:19;;;;;;;0.15;0.10;;;;;;;18.71;100.00;98739.66;7395491;19;20027;-86
2022/06/25 08:36:46;;;;;;;0.93;0.20;;;;;;;19.02;100.00;98744.06;7391388;19;20425;-86
2022/06/25 08:39:12;;;;;;;0.20;0.10;;;;;;;19.44;100.00;98744.53;7395490;19;20018;-87
2022/06/25 08:41:39;;;;;;;0.40;0.32;;;;;;;19.71;100.00;98733.63;7391889;19;20011;-87
2022/06/25 08:44:05;;;;;;;3.17;0.65;;;;;;;19.86;100.00;98736.44;7393570;19;20507;-86
2022/06/25 08:46:32;;;;;;;0.57;0.32;;;;;;;20.09;100.00;98740.00;7392094;19;20086;-86
2022/06/25 08:49:00;;;;;;;0.57;0.03;;;;;;;20.34;100.00;98727.50;7392877;19;20464;-88
2022/06/25 08:51:28;;;;;;;1.45;0.52;;;;;;;20.46;100.00;98733.50;7392904;19;20011;-85
2022/06/25 08:53:56;;;;;;;2.05;0.35;;;;;;;20.50;100.00;98736.69;7390200;19;20019;-85
2022/06/25 08:56:23;;;;;;;1.75;0.35;;;;;;;20.39;100.00;98735.03;7390580;19;20372;-86
2022/06/25 08:58:49;;;;;;;0.65;0.63;;;;;;;20.25;100.00;98752.78;7394462;19;20017;-86
2022/06/25 09:01:15;;;;;;;0.45;0.00;;;;;;;20.29;100.00;98747.53;7392114;19;20086;-86
2022/06/25 09:03:42;;;;;;;3.80;0.25;;;;;;;20.14;100.00;98753.19;7392167;19;20361;-86
2022/06/25 09:06:17;;;;;;;10.70;0.40;;;;;;;19.80;100.00;98752.81;7392913;19;20014;-85
2022/06/25 09:09:04;;;;;;;2.85;0.47;;;;;;;19.54;100.00;98743.41;7398117;19;20023;-86
2022/06/25 09:11:30;;;;;;;1.35;0.55;;;;;;;19.27;100.00;98749.94;7400694;19;20029;-85
2022/06/25 09:14:20;;;;;;;0.38;0.10;;;;;;;18.82;100.00;98759.03;7400633;19;20018;-84
2022/06/25 09:17:04;;;;;;;5.20;0.10;;;;;;;18.51;100.00;98755.34;7397180;19;20015;-85
2022/06/25 09:19:39;;;;;;;0.85;0.28;;;;;;;18.73;100.00;98762.41;7403349;19;20018;-85
2022/06/25 09:22:08;;;;;;;0.20;0.10;;;;;;;18.42;100.00;98752.25;7399855;19;20080;-85
2022/06/25 09:24:43;;;;;;;3.40;0.52;;;;;;;18.30;100.00;98751.09;7398622;19;20014;-85
2022/06/25 09:27:10;;;;;;;0.73;0.30;;;;;;;18.63;100.00;98750.13;7396893;19;20456;-86
2022/06/25 09:29:45;;;;;;;0.63;0.13;;;;;;;18.77;100.00;98743.81;7399933;19;20546;-85
2022/06/25 09:32:11;;;;;;;0.20;0.10;;;;;;;19.51;100.00;98738.88;7397376;19;20350;-85
2022/06/25 09:34:38;;;;;;;2.15;0.10;;;;;;;19.90;100.00;98737.59;7398053;19;20074;-85
2022/06/25 09:37:17;;;;;;;0.85;0.10;;;;;;;20.38;100.00;98750.50;7395939;19;20022;-85
2022/06/25 09:39:48;;;;;;;0.20;0.10;;;;;;;20.59;100.00;98738.94;7402395;19;20025;-85
2022/06/25 09:42:28;;;;;;;4.50;0.30;;;;;;;20.67;100.00;98731.16;7398482;19;20023;-85
2022/06/25 09:45:12;;;;;;;0.20;0.00;;;;;;;20.73;100.00;98733.75;7399576;19;20404;-85
2022/06/25 09:47:40;;;;;;;7.88;0.38;;;;;;;21.13;100.00;98745.88;7395662;19;20035;-86
2022/06/25 09:50:12;;;;;;;1.67;0.10;;;;;;;21.20;100.00;98736.59;7400421;19;20082;-85
2022/06/25 09:52:50;;;;;;;0.00;0.00;;;;;;;21.23;100.00;98734.66;7395959;19;20381;-84
2022/06/25 09:55:16;;;;;;;1.73;0.68;;;;;;;21.27;100.00;98740.69;7395548;19;20086;-84
2022/06/25 09:57:44;;;;;;;0.43;0.28;;;;;;;21.37;100.00;98738.72;7395174;19;20010;-85
2022/06/25 10:00:11;;;;;;;0.85;0.20;;;;;;;21.36;100.00;98731.53;7402649;19;20022;-84
2022/06/25 10:02:37;;;;;;;0.57;0.10;;;;;;;20.82;100.00;98742.41;7396317;19;20015;-84
2022/06/25 10:05:04;;;;;;;0.63;0.38;;;;;;;20.35;100.00;98736.75;7398292;19;20338;-86
2022/06/25 10:10:19;;;;;;;4.35;0.47;;;;;;;19.39;100.00;98760.34;7401308;19;20356;-85
2022/06/25 10:12:47;;;;;;;0.52;0.38;;;;;;;19.08;100.00;98752.38;7397979;19;20082;-85
2022/06/25 10:15:17;;;;;;;0.30;0.20;;;;;;;18.78;100.00;98772.75;7397890;19;20010;-85
2022/06/25 10:17:48;;;;;;;2.83;0.35;;;;;;;18.99;100.00;98762.13;7395710;19;20033;-85
2022/06/25 10:20:14;;;;;;;;;;;;;;;19.74;100.00;98749.44;7404197;19;20097;-85
2022/06/25 10:22:42;;;;;;;0.52;0.13;;;;;;;20.52;100.00;98742.53;7400069;19;19918;-85
2022/06/25 10:25:12;;;;;;;0.65;0.35;;;;;;;20.84;100.00;98751.06;7399245;19;20050;-85
2022/06/25 10:27:42;;;;;;;0.17;0.10;;;;;;;20.98;100.00;98743.84;7395099;19;20034;-85
2022/06/25 10:30:10;;;;;;;2.42;0.10;;;;;;;21.12;100.00;98733.78;7399193;19;20267;-86
2022/06/25 10:32:47;;;;;;;0.60;0.10;;;;;;;21.21;100.00;98725.97;7397268;19;20086;-85
2022/06/25 10:35:35;;;;;;;0.47;0.10;;;;;;;20.94;100.00;98731.41;7394954;19;20014;-85
2022/06/25 10:38:10;;;;;;;0.10;0.10;;;;;;;20.64;100.00;98729.47;7395566;19;20110;-85
2022/06/25 10:40:53;;;;;;;0.47;0.10;;;;;;;20.39;100.00;98728.63;7395281;19;20026;-85
2022/06/25 10:43:55;;;;;;;3.10;0.40;;;;;;;20.62;100.00;98726.47;7394013;19;20070;-85
2022/06/25 10:46:33;;;;;;;0.85;0.43;;;;;;;20.81;100.00;98718.25;7395075;19;20039;-86
2022/06/25 10:49:02;;;;;;;1.27;0.60;;;;;;;21.38;100.00;98728.88;7398618;19;20034;-86
2022/06/25 10:51:34;;;;;;;0.10;0.10;;;;;;;21.68;100.00;98734.31;7397689;19;20021;-87
2022/06/25 10:54:03;;;;;;;0.73;0.10;;;;;;;21.65;100.00;98729.81;7396905;19;20015;-86
2022/06/25 10:56:46;;;;;;;1.23;0.10;;;;;;;21.60;100.00;98722.28;7396070;19;20082;-85
2022/06/25 10:59:46;;;;;;;0.25;0.10;;;;;;;21.64;100.00;98723.41;7398421;19;20074;-86
2022/06/25 11:02:15;;;;;;;0.10;0.00;;;;;;;21.68;100.00;98722.97;7396638;19;20481;-87
2022/06/25 11:04:50;;;;;;;1.50;0.43;;;;;;;22.00;100.00;98720.09;7396665;19;20018;-86
2022/06/25 11:07:22;;;;;;;4.10;0.50;;;;;;;21.77;100.00;98730.84;7393968;19;20011;-87
2022/06/25 11:09:55;;;;;;;0.38;0.20;;;;;;;21.66;100.00;98719.97;7398749;19;20018;-85
2022/06/25 11:12:23;;;;;;;1.27;0.10;;;;;;;21.43;100.00;98719.41;7393265;19;20496;-86
2022/06/25 11:15:09;;;;;;;2.42;0.20;;;;;;;21.20;100.00;98713.16;7394101;19;20020;-86
2022/06/25 11:17:35;;;;;;;4.38;0.20;;;;;;;21.20;100.00;98724.50;7395235;19;20018;-85
2022/06/25 11:20:11;;;;;;;0.65;0.10;;;;;;;21.37;100.00;98716.81;7400848;19;20023;-86
2022/06/25 11:22:50;;;;;;;1.42;0.30;;;;;;;21.25;100.00;98717.84;7394760;19;20033;-87
2022/06/25 11:30:49;;;;;;;0.60;0.03;;;;;;;21.56;100.00;98717.03;7395100;19;20058;-87
2022/06/25 11:33:16;;;;;;;0.25;0.08;;;;;;;21.53;100.00;98711.78;7397042;19;20027;-86
2022/06/25 11:35:44;;;;;;;3.80;0.60;;;;;;;21.43;100.00;98727.91;7394125;19;20026;-87
2022/06/25 11:38:17;;;;;;;1.02;0.20;;;;;;;21.20;100.00;98724.50;7394325;19;20399;-86
2022/06/25 11:40:44;;;;;;;12.95;0.55;;;;;;;20.87;100.00;98727.31;7394028;19;20029;-85
2022/06/25 11:43:12;;;;;;;1.10;0.60;;;;;;;20.92;100.00;98723.47;7395425;19;20018;-86
2022/06/25 11:45:52;;;;;;;0.63;0.30;;;;;;;21.12;100.00;98719.63;7393629;19;20018;-86
2022/06/25 11:48:19;;;;;;;;;;;;;;;21.55;100.00;98718.38;7395369;19;20344;-87
2022/06/25 11:50:45;;;;;;;0.85;0.10;;;;;;;21.81;100.00;98719.84;7393835;19;19923;-87
2022/06/25 11:53:12;;;;;;;8.35;0.75;;;;;;;22.17;100.00;98716.50;7391979;19;20031;-86